createdAt,value
2019-02-05T00:00:55.327Z,-0.50
2019-02-05T00:03:23.717Z,-0.50
2019-02-05T00:05:52.743Z,-0.50
2019-02-05T00:08:21.221Z,-0.50
2019-02-05T00:10:50.068Z,-0.50
2019-02-05T00:13:18.494Z,-0.50
2019-02-05T00:15:48.021Z,-0.50
2019-02-05T00:18:16.529Z,-0.50
2019-02-05T00:20:45.694Z,-0.60
2019-02-05T00:23:14.156Z,-0.60
2019-02-05T00:25:42.563Z,-0.60
2019-02-05T00:28:11.301Z,-0.60
2019-02-05T00:30:39.770Z,-0.70
2019-02-05T00:33:08.178Z,-0.70
2019-02-05T00:35:36.576Z,-0.80
2019-02-05T00:38:05.304Z,-0.80
2019-02-05T00:40:33.707Z,-0.80
2019-02-05T00:43:02.790Z,-0.90
2019-02-05T00:45:31.204Z,-0.90
2019-02-05T00:47:59.596Z,-1.00
2019-02-05T00:50:28.026Z,-1.00
2019-02-05T00:52:56.702Z,-1.00
2019-02-05T00:55:25.093Z,-1.10
2019-02-05T00:57:53.490Z,-1.10
2019-02-05T01:00:28.214Z,-1.10
2019-02-05T01:02:56.770Z,-1.20
2019-02-05T01:05:25.806Z,-1.20
2019-02-05T01:07:54.597Z,-1.30
2019-02-05T01:10:24.133Z,-1.30
2019-02-05T01:12:53.246Z,-1.40
2019-02-05T01:15:24.192Z,-1.50
2019-02-05T01:17:52.741Z,-1.60
2019-02-05T01:20:22.505Z,-1.70
2019-02-05T01:22:51.838Z,-1.70
2019-02-05T01:25:21.374Z,-1.80
2019-02-05T01:27:50.850Z,-1.90
2019-02-05T01:30:27.094Z,-2.00
2019-02-05T01:32:55.899Z,-2.00
2019-02-05T01:35:24.721Z,-2.10
2019-02-05T01:37:53.461Z,-2.20
2019-02-05T01:40:24.018Z,-2.20
2019-02-05T01:42:52.781Z,-2.20
2019-02-05T01:45:22.917Z,-2.30
2019-02-05T01:47:51.683Z,-2.30
2019-02-05T01:50:22.985Z,-2.20
2019-02-05T01:52:51.467Z,-2.20
2019-02-05T01:55:20.349Z,-2.20
2019-02-05T01:57:48.762Z,-2.10
2019-02-05T02:00:19.500Z,-2.10
2019-02-05T02:02:47.994Z,-2.10
2019-02-05T02:05:16.721Z,-2.10
2019-02-05T02:07:45.206Z,-2.10
2019-02-05T02:10:19.934Z,-2.10
2019-02-05T02:12:48.330Z,-2.20
2019-02-05T02:15:17.172Z,-2.20
2019-02-05T02:17:45.741Z,-2.20
2019-02-05T02:20:16.381Z,-2.20
2019-02-05T02:22:45.420Z,-2.20
2019-02-05T02:25:14.533Z,-2.20
2019-02-05T02:27:43.088Z,-2.20
2019-02-05T02:30:23.455Z,-2.20
2019-02-05T02:32:51.858Z,-2.30
2019-02-05T02:35:20.262Z,-2.40
2019-02-05T02:37:48.735Z,-2.40
2019-02-05T02:40:17.219Z,-2.50
2019-02-05T02:42:45.641Z,-2.60
2019-02-05T02:45:15.075Z,-2.60
2019-02-05T02:47:43.484Z,-2.70
2019-02-05T02:50:14.715Z,-2.70
2019-02-05T02:52:43.182Z,-2.70
2019-02-05T02:55:11.735Z,-2.80
2019-02-05T02:57:40.206Z,-2.80
2019-02-05T03:00:15.110Z,-2.80
2019-02-05T03:02:43.579Z,-2.80
2019-02-05T03:05:14.006Z,-2.80
2019-02-05T03:07:42.424Z,-2.80
2019-02-05T03:10:19.377Z,-2.80
2019-02-05T03:12:47.783Z,-2.80
2019-02-05T03:15:16.811Z,-2.80
2019-02-05T03:17:45.290Z,-2.80
2019-02-05T03:20:15.637Z,-2.70
2019-02-05T03:22:45.337Z,-2.70
2019-02-05T03:25:19.800Z,-2.70
2019-02-05T03:27:48.470Z,-2.70
2019-02-05T03:30:18.920Z,-2.80
2019-02-05T03:32:47.446Z,-2.80
2019-02-05T03:35:16.901Z,-2.90
2019-02-05T03:37:45.367Z,-2.90
2019-02-05T03:40:28.691Z,-3.00
2019-02-05T03:42:57.224Z,-3.00
2019-02-05T03:45:27.765Z,-3.00
2019-02-05T03:47:59.246Z,-3.00
2019-02-05T03:50:28.694Z,-3.00
2019-02-05T03:53:05.320Z,-3.00
2019-02-05T03:55:48.830Z,-3.10
2019-02-05T03:58:26.433Z,-3.10
2019-02-05T04:01:13.065Z,-3.20
2019-02-05T04:04:05.034Z,-3.20
2019-02-05T04:06:42.630Z,-3.20
2019-02-05T04:09:23.357Z,-3.30
2019-02-05T04:12:03.475Z,-3.30
2019-02-05T04:14:41.020Z,-3.30
2019-02-05T04:17:12.881Z,-3.40
2019-02-05T04:20:17.914Z,-3.40
2019-02-05T04:23:04.438Z,-3.40
2019-02-05T04:25:55.684Z,-3.50
2019-02-05T04:28:29.742Z,-3.50
2019-02-05T04:31:22.613Z,-3.60
2019-02-05T04:34:06.006Z,-3.60
2019-02-05T04:36:46.050Z,-3.60
2019-02-05T04:39:43.331Z,-3.60
2019-02-05T04:42:17.771Z,-3.70
2019-02-05T04:45:04.727Z,-3.80
2019-02-05T04:47:48.230Z,-3.80
2019-02-05T04:50:22.701Z,-3.80
2019-02-05T04:53:00.121Z,-3.80
2019-02-05T04:55:37.526Z,-3.90
2019-02-05T04:58:17.533Z,-3.90
2019-02-05T05:00:57.762Z,-3.90
2019-02-05T05:03:58.124Z,-3.90
2019-02-05T05:06:46.153Z,-3.90
2019-02-05T05:09:26.597Z,-3.90
2019-02-05T05:11:54.989Z,-4.00
2019-02-05T05:14:23.391Z,-3.90
2019-02-05T05:16:51.806Z,-3.90
2019-02-05T05:19:20.479Z,-3.90
2019-02-05T05:21:49.164Z,-3.90
2019-02-05T05:24:17.921Z,-4.00
2019-02-05T05:26:46.486Z,-4.00
2019-02-05T05:29:15.251Z,-4.00
2019-02-05T05:31:44.369Z,-4.00
2019-02-05T05:34:12.767Z,-4.10
2019-02-05T05:36:48.374Z,-4.00
2019-02-05T05:39:17.118Z,-4.10
2019-02-05T05:41:45.841Z,-4.00
2019-02-05T05:44:14.321Z,-4.10
2019-02-05T05:46:42.726Z,-4.10
2019-02-05T05:49:11.140Z,-4.10
2019-02-05T05:51:39.825Z,-4.10
2019-02-05T05:54:08.230Z,-4.10
2019-02-05T05:56:36.634Z,-4.20
2019-02-05T05:59:05.189Z,-4.20
2019-02-05T06:01:36.525Z,-4.20
2019-02-05T06:04:05.817Z,-4.20
2019-02-05T06:06:34.229Z,-4.20
2019-02-05T06:09:04.458Z,-4.30
2019-02-05T06:11:32.921Z,-4.30
2019-02-05T06:14:20.667Z,-4.30
2019-02-05T06:16:49.082Z,-4.40
2019-02-05T06:19:17.501Z,-4.40
2019-02-05T06:21:46.150Z,-4.40
2019-02-05T06:24:14.572Z,-4.50
2019-02-05T06:26:42.970Z,-4.50
2019-02-05T06:29:11.391Z,-4.50
2019-02-05T06:31:39.865Z,-4.50
2019-02-05T06:34:08.277Z,-4.50
2019-02-05T06:36:36.702Z,-4.50
2019-02-05T06:39:07.514Z,-4.50
2019-02-05T06:41:36.392Z,-4.60
2019-02-05T06:44:05.227Z,-4.60
2019-02-05T06:46:33.714Z,-4.50
2019-02-05T06:49:02.177Z,-4.60
2019-02-05T06:51:30.606Z,-4.60
2019-02-05T06:53:59.394Z,-4.60
2019-02-05T06:56:27.798Z,-4.60
2019-02-05T06:58:56.215Z,-4.60
2019-02-05T07:01:24.635Z,-4.60
2019-02-05T07:03:53.030Z,-4.60
2019-02-05T07:06:21.434Z,-4.50
2019-02-05T07:08:49.915Z,-4.50
2019-02-05T07:11:18.703Z,-4.40
2019-02-05T07:13:47.147Z,-4.40
2019-02-05T07:16:15.584Z,-4.30
2019-02-05T07:18:44.015Z,-4.20
2019-02-05T07:21:12.778Z,-4.20
2019-02-05T07:23:41.233Z,-4.10
2019-02-05T07:26:09.927Z,-4.10
2019-02-05T07:28:38.679Z,-4.10
2019-02-05T07:31:07.189Z,-4.00
2019-02-05T07:33:35.594Z,-4.00
2019-02-05T07:36:04.459Z,-4.00
2019-02-05T07:38:32.869Z,-3.90
2019-02-05T07:41:01.276Z,-3.80
2019-02-05T07:43:29.754Z,-3.80
2019-02-05T07:45:58.424Z,-3.70
2019-02-05T07:48:30.332Z,-3.70
2019-02-05T07:50:57.339Z,-3.60
2019-02-05T07:53:25.810Z,-3.50
2019-02-05T07:55:54.214Z,-3.50
2019-02-05T07:58:22.654Z,-3.40
2019-02-05T08:00:51.060Z,-3.30
2019-02-05T08:03:19.450Z,-3.20
2019-02-05T08:05:48.126Z,-3.10
2019-02-05T08:08:16.546Z,-3.10
2019-02-05T08:10:45.186Z,-3.00
2019-02-05T08:13:32.943Z,-2.90
2019-02-05T08:16:01.342Z,-2.80
2019-02-05T08:18:49.112Z,-2.70
2019-02-05T08:21:17.513Z,-2.60
2019-02-05T08:23:45.918Z,-2.50
2019-02-05T08:26:14.327Z,-2.30
2019-02-05T08:28:42.739Z,-2.20
2019-02-05T08:31:11.138Z,-2.10
2019-02-05T08:33:39.538Z,-1.90
2019-02-05T08:36:08.035Z,-1.80
2019-02-05T08:38:36.436Z,-1.60
2019-02-05T08:41:05.027Z,-1.50
2019-02-05T08:43:33.594Z,-1.40
2019-02-05T08:46:01.989Z,-1.20
2019-02-05T08:48:30.394Z,-1.10
2019-02-05T08:50:58.858Z,-1.10
2019-02-05T08:53:27.651Z,-1.00
2019-02-05T08:55:56.054Z,-0.80
2019-02-05T08:58:31.081Z,-0.80
2019-02-05T09:00:54.590Z,-0.70
2019-02-05T09:03:23.278Z,-0.50
2019-02-05T09:05:51.750Z,0.00
2019-02-05T09:08:20.142Z,0.70
2019-02-05T09:10:48.555Z,1.50
2019-02-05T09:13:16.942Z,2.10
2019-02-05T09:15:45.359Z,2.40
2019-02-05T09:18:13.755Z,2.40
2019-02-05T09:20:42.146Z,2.10
2019-02-05T09:23:10.831Z,1.90
2019-02-05T09:25:39.294Z,1.70
2019-02-05T09:28:07.689Z,1.50
2019-02-05T09:30:36.912Z,1.30
2019-02-05T09:33:14.049Z,1.20
2019-02-05T09:35:42.458Z,1.10
2019-02-05T09:38:10.853Z,1.10
2019-02-05T09:40:39.262Z,1.10
2019-02-05T09:43:07.746Z,1.10
2019-02-05T09:45:36.481Z,1.10
2019-02-05T09:48:05.015Z,1.10
2019-02-05T09:50:44.240Z,1.10
2019-02-05T09:53:03.548Z,1.10
2019-02-05T09:55:32.313Z,1.20
2019-02-05T09:58:20.066Z,1.20
2019-02-05T10:00:48.457Z,1.30
2019-02-05T10:03:17.114Z,1.30
2019-02-05T10:05:45.618Z,1.30
2019-02-05T10:08:14.094Z,1.40
2019-02-05T10:10:42.490Z,1.50
2019-02-05T10:13:10.899Z,1.50
2019-02-05T10:15:41.884Z,1.60
2019-02-05T10:18:12.534Z,1.70
2019-02-05T10:20:41.285Z,1.70
2019-02-05T10:23:10.250Z,1.80
2019-02-05T10:25:39.081Z,1.80
2019-02-05T10:28:07.955Z,1.90
2019-02-05T10:30:41.408Z,2.00
2019-02-05T10:33:09.938Z,2.10
2019-02-05T10:35:38.486Z,2.20
2019-02-05T10:38:07.024Z,2.30
2019-02-05T10:40:36.166Z,2.30
2019-02-05T10:43:05.415Z,2.40
2019-02-05T10:45:33.953Z,2.50
2019-02-05T10:48:02.618Z,2.60
2019-02-05T10:50:31.026Z,2.70
2019-02-05T10:52:59.439Z,2.70
2019-02-05T10:55:27.899Z,2.80
2019-02-05T10:57:56.726Z,2.80
2019-02-05T11:00:32.738Z,2.80
2019-02-05T11:03:03.451Z,2.90
2019-02-05T11:05:32.583Z,2.90
2019-02-05T11:08:01.058Z,3.00
2019-02-05T11:10:29.519Z,3.10
2019-02-05T11:12:58.213Z,3.10
2019-02-05T11:15:29.218Z,3.20
2019-02-05T11:17:57.695Z,3.20
2019-02-05T11:20:27.909Z,3.30
2019-02-05T11:23:15.650Z,3.40
2019-02-05T11:25:44.041Z,3.50
2019-02-05T11:28:12.446Z,3.60
2019-02-05T11:30:43.070Z,3.60
2019-02-05T11:33:11.980Z,3.70
2019-02-05T11:35:40.454Z,3.70
2019-02-05T11:38:09.482Z,3.80
2019-02-05T11:40:40.110Z,3.80
2019-02-05T11:43:08.595Z,3.90
2019-02-05T11:45:37.046Z,4.00
2019-02-05T11:48:08.527Z,4.00
2019-02-05T11:50:37.262Z,4.10
2019-02-05T11:53:05.798Z,4.20
2019-02-05T11:55:35.038Z,4.20
2019-02-05T11:58:03.898Z,4.30
2019-02-05T12:00:40.171Z,4.30
2019-02-05T12:03:09.903Z,4.40
2019-02-05T12:05:38.565Z,4.50
2019-02-05T12:08:07.123Z,4.50
2019-02-05T12:10:35.589Z,4.60
2019-02-05T12:13:04.117Z,4.60
2019-02-05T12:15:32.611Z,4.60
2019-02-05T12:18:01.076Z,4.60
2019-02-05T12:20:29.542Z,4.60
2019-02-05T12:22:58.508Z,4.60
2019-02-05T12:25:28.062Z,4.60
2019-02-05T12:27:56.454Z,4.60
2019-02-05T12:30:27.195Z,4.60
2019-02-05T12:32:55.987Z,4.70
2019-02-05T12:35:24.454Z,4.70
2019-02-05T12:37:52.915Z,4.70
2019-02-05T12:40:21.703Z,4.70
2019-02-05T12:42:50.261Z,4.70
2019-02-05T12:45:30.007Z,4.70
2019-02-05T12:47:58.576Z,4.70
2019-02-05T12:50:31.866Z,4.80
2019-02-05T12:53:00.386Z,4.80
2019-02-05T12:55:28.864Z,4.80
2019-02-05T12:57:57.896Z,4.80
2019-02-05T13:00:29.086Z,4.90
2019-02-05T13:02:57.495Z,4.90
2019-02-05T13:05:26.189Z,4.90
2019-02-05T13:07:54.721Z,4.90
2019-02-05T13:10:28.962Z,4.90
2019-02-05T13:12:57.497Z,4.90
2019-02-05T13:15:25.898Z,4.90
2019-02-05T13:17:54.434Z,4.90
2019-02-05T13:20:30.614Z,4.90
2019-02-05T13:23:00.363Z,4.90
2019-02-05T13:25:30.862Z,4.90
2019-02-05T13:27:59.502Z,4.90
2019-02-05T13:30:30.530Z,4.90
2019-02-05T13:32:58.994Z,4.90
2019-02-05T13:35:28.797Z,4.90
2019-02-05T13:37:57.331Z,5.00
2019-02-05T13:40:28.098Z,5.00
2019-02-05T13:42:57.066Z,5.00
2019-02-05T13:45:31.092Z,4.90
2019-02-05T13:47:59.548Z,5.00
2019-02-05T13:50:33.789Z,5.00
2019-02-05T13:53:02.439Z,4.90
2019-02-05T13:55:33.555Z,4.90
2019-02-05T13:58:02.347Z,5.00
2019-02-05T14:00:39.553Z,5.00
2019-02-05T14:03:09.360Z,5.00
2019-02-05T14:05:38.102Z,5.00
2019-02-05T14:08:06.865Z,5.10
2019-02-05T14:10:37.603Z,5.10
2019-02-05T14:13:06.326Z,5.10
2019-02-05T14:15:36.971Z,5.10
2019-02-05T14:18:06.497Z,5.20
2019-02-05T14:20:34.954Z,5.20
2019-02-05T14:23:03.434Z,5.20
2019-02-05T14:25:31.902Z,5.30
2019-02-05T14:28:00.286Z,5.30
2019-02-05T14:30:42.870Z,5.30
2019-02-05T14:33:11.265Z,5.30
2019-02-05T14:35:39.958Z,5.30
2019-02-05T14:38:08.721Z,5.30
2019-02-05T14:40:37.186Z,5.30
2019-02-05T14:43:06.118Z,5.30
2019-02-05T14:45:34.659Z,5.20
2019-02-05T14:48:03.594Z,5.20
2019-02-05T14:50:34.641Z,5.10
2019-02-05T14:53:03.830Z,5.00
2019-02-05T14:55:32.222Z,5.00
2019-02-05T14:58:00.634Z,4.90
2019-02-05T15:00:36.063Z,4.80
2019-02-05T15:03:07.487Z,4.70
2019-02-05T15:05:35.874Z,4.70
2019-02-05T15:08:05.955Z,4.60
2019-02-05T15:10:34.775Z,4.60
2019-02-05T15:13:22.515Z,4.60
2019-02-05T15:15:50.902Z,4.60
2019-02-05T15:18:19.441Z,4.60
2019-02-05T15:20:48.529Z,4.50
2019-02-05T15:23:16.914Z,4.50
2019-02-05T15:25:45.322Z,4.40
2019-02-05T15:28:13.710Z,4.30
2019-02-05T15:30:43.537Z,4.20
2019-02-05T15:33:17.650Z,4.10
2019-02-05T15:35:54.085Z,4.10
2019-02-05T15:38:22.516Z,4.00
2019-02-05T15:40:50.918Z,3.80
2019-02-05T15:43:19.693Z,3.80
2019-02-05T15:45:48.089Z,3.70
2019-02-05T15:48:16.489Z,3.50
2019-02-05T15:50:44.882Z,3.50
2019-02-05T15:53:13.277Z,3.30
2019-02-05T15:55:42.146Z,3.20
2019-02-05T15:58:10.589Z,3.10
2019-02-05T16:00:38.981Z,2.90
2019-02-05T16:03:08.034Z,2.80
2019-02-05T16:05:36.694Z,2.60
2019-02-05T16:08:05.742Z,2.50
2019-02-05T16:10:34.135Z,2.30
2019-02-05T16:13:03.248Z,2.20
2019-02-05T16:15:31.682Z,2.10
2019-02-05T16:18:00.215Z,1.90
2019-02-05T16:20:29.049Z,1.80
2019-02-05T16:22:57.450Z,1.60
2019-02-05T16:25:25.846Z,1.50
2019-02-05T16:27:54.513Z,1.40
2019-02-05T16:30:25.992Z,1.20
2019-02-05T16:32:54.377Z,1.10
2019-02-05T16:35:22.881Z,1.00
2019-02-05T16:37:53.499Z,0.80
2019-02-05T16:40:26.962Z,0.70
2019-02-05T16:42:57.076Z,0.60
2019-02-05T16:45:27.878Z,0.50
2019-02-05T16:47:56.447Z,0.40
2019-02-05T16:50:30.841Z,0.30
2019-02-05T16:52:59.233Z,0.20
2019-02-05T16:55:28.125Z,0.10
2019-02-05T16:57:56.513Z,0.00
2019-02-05T17:00:30.541Z,-0.10
2019-02-05T17:03:18.298Z,-0.10
2019-02-05T17:05:46.690Z,-0.20
2019-02-05T17:08:15.124Z,-0.30
2019-02-05T17:10:43.574Z,-0.40
2019-02-05T17:13:12.252Z,-0.50
2019-02-05T17:15:40.753Z,-0.50
2019-02-05T17:18:10.134Z,-0.60
2019-02-05T17:20:38.670Z,-0.70
2019-02-05T17:23:07.337Z,-0.70
2019-02-05T17:25:36.244Z,-0.80
2019-02-05T17:28:06.543Z,-0.90
2019-02-05T17:30:37.662Z,-1.00
2019-02-05T17:33:06.851Z,-1.00
2019-02-05T17:35:35.997Z,-1.10
2019-02-05T17:38:06.932Z,-1.20
2019-02-05T17:40:36.224Z,-1.20
2019-02-05T17:43:05.617Z,-1.30
2019-02-05T17:45:36.887Z,-1.30
2019-02-05T17:48:11.078Z,-1.40
2019-02-05T17:50:58.821Z,-1.40
2019-02-05T17:53:27.242Z,-1.50
2019-02-05T17:55:55.661Z,-1.50
2019-02-05T17:58:24.059Z,-1.60
2019-02-05T18:00:54.114Z,-1.60
2019-02-05T18:03:22.793Z,-1.60
2019-02-05T18:05:51.188Z,-1.60
2019-02-05T18:08:19.618Z,-1.70
2019-02-05T18:10:48.022Z,-1.80
2019-02-05T18:13:16.422Z,-1.80
2019-02-05T18:15:44.916Z,-1.90
2019-02-05T18:18:13.387Z,-1.90
2019-02-05T18:20:41.786Z,-1.90
2019-02-05T18:23:14.375Z,-1.90
2019-02-05T18:25:42.947Z,-2.00
2019-02-05T18:28:11.341Z,-2.00
2019-02-05T18:30:40.298Z,-2.10
2019-02-05T18:33:08.866Z,-2.10
2019-02-05T18:35:37.262Z,-2.10
2019-02-05T18:38:14.066Z,-2.20
2019-02-05T18:40:42.477Z,-2.20
2019-02-05T18:43:11.383Z,-2.20
2019-02-05T18:45:39.782Z,-2.20
2019-02-05T18:48:08.606Z,-2.30
2019-02-05T18:50:37.013Z,-2.30
2019-02-05T18:53:05.484Z,-2.30
2019-02-05T18:55:36.696Z,-2.30
2019-02-05T18:58:09.284Z,-2.40
2019-02-05T19:00:41.790Z,-2.40
2019-02-05T19:03:15.572Z,-2.40
2019-02-05T19:05:40.626Z,-2.40
2019-02-05T19:08:09.700Z,-2.40
2019-02-05T19:10:38.340Z,-2.50
2019-02-05T19:13:06.800Z,-2.50
2019-02-05T19:15:37.379Z,-2.50
2019-02-05T19:18:07.227Z,-2.60
2019-02-05T19:20:35.716Z,-2.60
2019-02-05T19:23:06.246Z,-2.60
2019-02-05T19:25:36.368Z,-2.60
2019-02-05T19:28:05.421Z,-2.60
2019-02-05T19:30:35.471Z,-2.70
2019-02-05T19:33:04.407Z,-2.70
2019-02-05T19:35:32.890Z,-2.70
2019-02-05T19:38:01.288Z,-2.80
2019-02-05T19:40:29.694Z,-2.80
2019-02-05T19:42:58.111Z,-2.80
2019-02-05T19:45:34.177Z,-2.80
2019-02-05T19:48:04.281Z,-2.80
2019-02-05T19:50:32.722Z,-2.80
2019-02-05T19:53:01.153Z,-2.90
2019-02-05T19:55:29.559Z,-2.90
2019-02-05T19:57:58.342Z,-2.90
2019-02-05T20:00:26.790Z,-2.90
2019-02-05T20:02:55.652Z,-2.90
2019-02-05T20:05:24.165Z,-2.90
2019-02-05T20:07:52.886Z,-3.00
2019-02-05T20:10:21.319Z,-3.00
2019-02-05T20:12:49.709Z,-3.00
2019-02-05T20:15:19.754Z,-3.10
2019-02-05T20:17:48.520Z,-3.10
2019-02-05T20:20:21.509Z,-3.10
2019-02-05T20:22:50.286Z,-3.10
2019-02-05T20:25:19.689Z,-3.10
2019-02-05T20:27:48.163Z,-3.20
2019-02-05T20:30:22.748Z,-3.20
2019-02-05T20:32:51.296Z,-3.20
2019-02-05T20:35:19.700Z,-3.20
2019-02-05T20:37:48.960Z,-3.20
2019-02-05T20:40:22.658Z,-3.30
2019-02-05T20:42:51.123Z,-3.30
2019-02-05T20:45:19.742Z,-3.30
2019-02-05T20:47:48.166Z,-3.30
2019-02-05T20:50:18.786Z,-3.30
2019-02-05T20:52:47.686Z,-3.40
2019-02-05T20:55:21.689Z,-3.40
2019-02-05T20:57:50.634Z,-3.40
2019-02-05T21:00:24.318Z,-3.40
2019-02-05T21:02:52.862Z,-3.30
2019-02-05T21:05:21.548Z,-3.40
2019-02-05T21:07:50.284Z,-3.40
2019-02-05T21:10:21.413Z,-3.40
2019-02-05T21:12:49.991Z,-3.40
2019-02-05T21:15:18.641Z,-3.40
2019-02-05T21:17:47.057Z,-3.50
2019-02-05T21:20:28.951Z,-3.50
2019-02-05T21:22:48.686Z,-3.50
2019-02-05T21:25:19.402Z,-3.50
2019-02-05T21:27:47.938Z,-3.50
2019-02-05T21:30:21.491Z,-3.50
2019-02-05T21:32:50.190Z,-3.60
2019-02-05T21:35:18.656Z,-3.60
2019-02-05T21:37:47.066Z,-3.60
2019-02-05T21:40:20.921Z,-3.60
2019-02-05T21:42:49.674Z,-3.50
2019-02-05T21:45:20.687Z,-3.50
2019-02-05T21:47:49.326Z,-3.50
2019-02-05T21:50:24.253Z,-3.60
2019-02-05T21:52:53.013Z,-3.60
2019-02-05T21:55:27.847Z,-3.60
2019-02-05T21:57:56.697Z,-3.60
2019-02-05T22:00:35.997Z,-3.60
2019-02-05T22:03:06.199Z,-3.60
2019-02-05T22:05:34.694Z,-3.70
2019-02-05T22:10:34.279Z,-3.70
2019-02-05T22:13:02.701Z,-3.70
2019-02-05T22:15:31.488Z,-3.80
2019-02-05T22:17:59.907Z,-3.80
2019-02-05T22:20:29.422Z,-3.80
2019-02-05T22:22:58.080Z,-3.80
2019-02-05T22:25:30.955Z,-3.80
2019-02-05T22:27:59.642Z,-3.80
2019-02-05T22:30:38.299Z,-3.90
2019-02-05T22:33:08.038Z,-3.80
2019-02-05T22:35:36.438Z,-3.90
2019-02-05T22:38:05.554Z,-3.90
2019-02-05T22:40:34.033Z,-3.90
2019-02-05T22:43:02.870Z,-3.90
2019-02-05T22:45:50.614Z,-3.90
2019-02-05T22:48:19.011Z,-4.00
2019-02-05T22:50:47.411Z,-4.00
2019-02-05T22:53:16.029Z,-4.00
2019-02-05T22:55:44.436Z,-4.00
2019-02-05T22:58:12.969Z,-4.00
2019-02-05T23:01:03.870Z,-4.00
2019-02-05T23:03:37.946Z,-4.00
2019-02-05T23:06:38.435Z,-4.00
2019-02-05T23:09:25.282Z,-4.00
2019-02-05T23:12:08.707Z,-4.00
2019-02-05T23:14:37.105Z,-4.00
2019-02-05T23:17:06.019Z,-4.00
2019-02-05T23:19:34.574Z,-4.00
2019-02-05T23:22:03.066Z,-4.00
2019-02-05T23:24:31.479Z,-3.90
2019-02-05T23:27:00.350Z,-4.00
2019-02-05T23:29:28.829Z,-3.90
2019-02-05T23:31:57.488Z,-3.90
2019-02-05T23:34:26.134Z,-3.90
2019-02-05T23:36:54.792Z,-3.90
2019-02-05T23:39:23.337Z,-4.00
2019-02-05T23:41:52.343Z,-4.00
2019-02-05T23:44:21.002Z,-4.00
2019-02-05T23:46:49.540Z,-4.10
2019-02-05T23:49:18.310Z,-4.10
2019-02-05T23:51:47.311Z,-4.20
2019-02-05T23:54:15.951Z,-4.20
2019-02-05T23:56:45.109Z,-4.30
2019-02-05T23:59:14.185Z,-4.30
